x

New London Ledge Ct - Ledge Light Weather Station (ldlc3) Weather Station

7:55 - Mon 30th Mar 2015 All times are EDT. -4 hours from GMT.

  • Wind
    10mph
  • Luft Temp 39°f
  • Sea Pressure 1007.4mb
  • New London Ledge Ct - Ledge Light Weather Station
  • New London Ledge Ct - Ledge Light Weather Station

More Historic Weather Station data

Upgrade to MSW Pro to gain access to the past 30 days of data for over 8000 Wavebouys and Weather Stations around the globe.

Join Pro

Comparision Forecast

View Surf forecast
   
Mo 03/30 7:55 10
mph
1007.4mb 39f
7:40 9 10 mph 1007.1mb 39f
7:25 9 10 mph 1006.8mb 40f
7:10 9 10 mph 1006.8mb 40f
6:55 9 10 mph 1006.8mb 41f
6:40 10 11 mph 1006.7mb 40f
6:25 8 9 mph 1006.8mb 42f
6:10 5 7 mph 1006.7mb 44f
5:55 3 6 mph 1006.6mb 43f
5:40 8
mph
1006.6mb 41f
5:25 9 10 mph 1006.4mb 41f
5:10 9 10 mph 1006.4mb 40f
4:55 11 13 mph 1006.4mb 40f
4:40 11
mph
1006.4mb 39f
4:25 13 14 mph 1006.6mb 39f
4:10 13 14 mph 1006.7mb 39f
3:55 15 16 mph 1006.8mb 39f
3:40 15 16 mph 1006.9mb 40f
3:25 15 16 mph 1007mb 40f
3:10 18 21 mph 1007mb 39f
2:55 16 18 mph 1007.2mb 40f
2:40 16 17 mph 1007.4mb 38f
2:25 17 20 mph 1007.5mb 38f
2:10 20 22 mph 1007.5mb 38f
1:55 20 22 mph 1007.6mb 38f
1:40 16 20 mph 1007.9mb 38f
1:25 20 22 mph 1008mb 38f
1:10 20 23 mph 1008mb 38f
12:55 20 22 mph 1008.5mb 38f
12:40 20 23 mph 1008.8mb 38f
12:25 15 17 mph 1009.2mb 38f
12:10 17 20 mph 1009.4mb 38f
11:55 22 25 mph 1009.5mb 38f
11:40 21 25 mph 1009.9mb 38f
11:25 23 25 mph 1010.1mb 39f
11:10 24 28 mph 1010.3mb 39f
10:55 17 20 mph 1010.7mb 38f
10:40 17 20 mph 1010.9mb 38f
10:25 16 18 mph 1010.9mb 38f
10:10 18 20 mph 1011.2mb 38f
9:55 16 17 mph 1011.4mb 38f
9:40 14 15 mph 1011.5mb 37f
9:25 15 17 mph 1011.8mb 37f
9:10 18 21 mph 1011.8mb 37f
8:55 22 25 mph 1012.1mb 37f
8:40 23 28 mph 1012.1mb 38f
8:25 16 17 mph 1012.7mb 38f
8:10 17 20 mph 1013mb 38f
7:55 21 25 mph 1013.1mb 38f
7:40 21 23 mph 1013.1mb 37f
7:25 20 22 mph 1013.2mb 37f
7:10 17 21 mph 1013.6mb 37f
6:55 15 17 mph 1014mb 37f
6:40 13 14 mph 1014.1mb 37f
6:25 14 15 mph 1014.4mb 37f
6:10 13 14 mph 1014.5mb 37f
5:55 11 13 mph 1014.7mb 37f
5:40 13 15 mph 1014.9mb 37f
5:25 16 18 mph 1015.1mb 37f
5:10 15 17 mph 1015.2mb 37f
4:55 17 20 mph 1015.3mb 37f
4:40 17 18 mph 1015.5mb 37f
4:25 17 21 mph 1015.7mb 36f
4:10 16 18 mph 1015.7mb 36f
3:55 18 21 mph 1015.8mb 36f
3:40 18 21 mph 1015.9mb 37f
3:25 21 23 mph 1016.1mb 37f
3:10 22 25 mph 1016.2mb 37f
2:55 20 23 mph 1016.5mb 36f
2:40 20 22 mph 1017mb 36f
2:10 11 15 mph 1018mb 36f
1:55 8 11 mph 1018.3mb 35f
1:40 7 8 mph 1018.3mb 35f
1:25 9 11 mph 1018.4mb 35f
1:10 9 11 mph 1018.4mb 36f
So 03/29 7:55 14 16 mph 1020.1mb 37f
7:40 15 16 mph 1020.1mb 37f
7:25 16 17 mph 1020mb 37f
7:10 16 18 mph 1019.9mb 36f
6:55 18 22 mph 1019.8mb 37f
6:40 20 22 mph 1019.6mb 37f
6:25 21 22 mph 1019.6mb 36f
6:10 20 23 mph 1019.4mb 36f
5:55 21 23 mph 1019.2mb 36f
5:40 23 25 mph 1019.1mb 36f
5:25 18 21 mph 1019.4mb 36f
5:10 21 24 mph 1019.1mb 36f
4:55 20 22 mph 1019.2mb 36f
4:40 18 22 mph 1019.2mb 36f
4:25 21 23 mph 1019.4mb 36f
4:10 21 23 mph 1019.5mb 36f
3:55 13 18 mph 1020mb 37f
3:40 9 11 mph 1020.4mb 36f
3:25 10 13 mph 1020.6mb 36f
3:10 13 14 mph 1020.7mb 37f
2:55 11 14 mph 1020.7mb 37f
2:40 13 15 mph 1020.8mb 36f
2:25 11 15 mph 1020.9mb 38f
2:10 8 9 mph 1021.2mb 39f
1:55 10 13 mph 1021.3mb 39f
1:40 10 14 mph 1021.4mb 39f
1:25 9 11 mph 1021.6mb 37f
1:10 8 11 mph 1021.7mb 38f
12:55 11 15 mph 1021.7mb 38f
12:40 10 15 mph 1021.9mb 37f
12:25 14 16 mph 1022.1mb 37f
12:10 11 15 mph 1022.3mb 36f
11:55 14 16 mph 1022.4mb 35f
11:40 10 13 mph 1022.4mb 35f
11:25 11 14 mph 1022.4mb 35f
11:10 13 15 mph 1022.6mb 33f
10:55 14 20 mph 1022.5mb 33f
10:40 17 21 mph 1022.6mb 32f
10:25 17 20 mph 1022.5mb 32f
10:10 18 22 mph 1022.4mb 31f
9:55 18 23 mph 1022.3mb 31f
9:40 15 18 mph 1022.4mb 29f
9:25 18 23 mph 1022mb 29f
9:10 20 25 mph 1021.8mb 28f
8:55 20 24 mph 1021.8mb 28f
8:40 20 23 mph 1021.6mb 28f
8:25 20 23 mph 1021.5mb 27f
8:10 22 25 mph 1021.3mb 27f
7:55 20 23 mph 1021.1mb 27f
7:40 21 25 mph 1020.7mb 27f
7:25 21 24 mph 1020.4mb 27f
7:10 21 26 mph 1020mb 27f
6:55 22 25 mph 1019.7mb 27f
6:40 23 26 mph 1019.4mb 27f
6:25 24 28 mph 1019.2mb 27f
6:10 23 29 mph 1018.9mb 27f
5:55 25 29 mph 1018.6mb 27f
5:40 22 26 mph 1018.4mb 27f
5:25 25 29 mph 1018.2mb 27f
5:10 25 29 mph 1018mb 27f
4:55 28 32 mph 1017.8mb 27f
4:40 25 28 mph 1017.7mb 27f
4:25 25 30 mph 1017.4mb 27f
4:10 25 30 mph 1017.3mb 28f
3:55 24 26 mph 1017.1mb 28f
3:40 26 31 mph 1016.9mb 28f
3:25 28 32 mph 1016.8mb 28f
3:10 28 30 mph 1016.8mb 28f
2:55 25 32 mph 1016.9mb 28f
2:40 31 36 mph 1016.4mb 28f
2:25 21 25 mph 1016.8mb 28f
2:10 23 28 mph 1016.6mb 28f
1:55 30 36 mph 1016.4mb 28f
1:40 28 33 mph 1016.5mb 28f
1:25 24 28 mph 1016.5mb 29f
1:10 23 25 mph 1016.3mb 29f
Sa 03/28 7:55 13 16 mph 1012.4mb 33f
7:40 8 11 mph 1012.2mb 33f
7:25 9 11 mph 1011.9mb 33f
7:10 9 10 mph 1011.5mb 33f
6:55 11 14 mph 1011.3mb 33f
6:40 8 13 mph 1010.8mb 33f
6:25 7 9 mph 1010.4mb 34f
6:10 9 11 mph 1010mb 34f
5:55 8 9 mph 1009.7mb 34f
5:40 10 15 mph 1009.5mb 34f
5:25 10 13 mph 1009.1mb 34f
5:10 10 14 mph 1008.8mb 34f
4:55 10 16 mph 1008.4mb 35f
4:40 14 16 mph 1008.1mb 35f
4:25 15 18 mph 1007.8mb 35f
4:10 14 18 mph 1007.6mb 36f
3:55 15 16 mph 1007.4mb 36f
3:40 18 22 mph 1007.2mb 36f
3:25 15 17 mph 1007.1mb 36f
3:10 17 21 mph 1006.9mb 36f
2:55 16 20 mph 1006.8mb 36f
2:40 16 21 mph 1006.7mb 36f
2:25 18 21 mph 1006.4mb 36f
2:10 18 21 mph 1006.3mb 36f
1:55 18 21 mph 1006.3mb 36f
1:40 21 23 mph 1006.3mb 36f
1:25 17 21 mph 1006.3mb 36f
1:10 21 25 mph 1006.1mb 37f
12:55 21 25 mph 1006.1mb 37f
12:40 22 25 mph 1006mb 37f
12:25 18 23 mph 1006.2mb 37f
12:10 20 23 mph 1006.1mb 36f
11:55 18 22 mph 1006.3mb 36f
11:40 20 22 mph 1006.3mb 36f
11:25 20 24 mph 1006.1mb 36f
11:10 21 24 mph 1006.2mb 36f
10:55 22 25 mph 1006.1mb 36f
10:40 20 23 mph 1006.3mb 35f
10:25 20 22 mph 1006.3mb 35f
10:10 20 22 mph 1006.3mb 35f
9:55 18 22 mph 1006.3mb 35f
9:40 20 23 mph 1006.1mb 35f
9:25 16 18 mph 1006.2mb 35f
9:10 18 22 mph 1005.9mb 35f
8:55 20 22 mph 1005.5mb 35f
8:40 21 23 mph 1005.3mb 35f
8:25 21 23 mph 1005mb 35f
8:10 21 23 mph 1005mb 35f
7:55 20 21 mph 1005.1mb 35f
7:40 18 21 mph 1005mb 35f
7:25 18 21 mph 1005.1mb 35f
7:10 18 20 mph 1005.1mb 35f
6:55 17 18 mph 1005.1mb 35f
6:40 18 21 mph 1004.8mb 35f
6:25 16 17 mph 1004.7mb 35f
6:10 15 18 mph 1004.8mb 35f
5:55 13 16 mph 1004.7mb 36f
5:40 14 16 mph 1004.8mb 36f
5:25 10 13 mph 1005.1mb 37f
5:10 10 13 mph 1005.1mb 37f
4:55 11 14 mph 1005.2mb 37f
4:40 15 18 mph 1004.9mb 38f
4:25 14 17 mph 1004.8mb 38f
4:10 16 18 mph 1004.6mb 38f
3:55 18 23 mph 1004.7mb 39f
3:40 21 23 mph 1004.9mb 39f
3:25 17 21 mph 1005.1mb 39f
3:10 16 20 mph 1004.9mb 40f
2:55 18 23 mph 1005mb 40f
2:40 17 20 mph 1005.2mb 40f
2:25 18 22 mph 1005.3mb 40f
2:10 16 21 mph 1005.7mb 40f
1:55 16 18 mph 1006mb 41f
1:40 14 15 mph 1006.4mb 41f
1:25 13 14 mph 1006.2mb 41f
1:10 13 15 mph 1006.4mb 41f
Fr 03/27 7:55 8 9 mph 1006.2mb 44f
7:40 9 10 mph 1006.4mb 44f
7:25 9 10 mph 1005.8mb 44f
7:10 5 6 mph 1005.5mb 44f
6:55 6 7 mph 1005.2mb 43f
6:40 6 8 mph 1005.1mb 44f
6:25 6 7 mph 1005.8mb 44f
6:10 5 7 mph 1006mb 44f
5:55 6 7 mph 1005.8mb 44f
5:40 8 10 mph 1005.8mb 44f
5:25 9 11 mph 1005.2mb 44f
5:10 10 13 mph 1004.7mb 44f
4:55 10 11 mph 1005mb 44f
4:40 9 11 mph 1005.2mb 44f
4:25 8 11 mph 1005.3mb 44f
4:10 6 7 mph 1005.2mb 44f
3:55 8 10 mph 1005.1mb 43f
3:40 9 10 mph 1005.3mb 43f
3:25 11
mph
1004.8mb 43f
3:10 9 10 mph 1004.9mb 43f
2:55 10 11 mph 1005.1mb 43f
2:40 9 10 mph 1004.8mb 43f
2:25 7 9 mph 1004.8mb 43f
2:10 9 11 mph 1004.9mb 43f
1:55 11 13 mph 1004.7mb 43f
1:40 11 14 mph 1004.9mb 42f
1:25 11 13 mph 1005.1mb 42f
1:10 11 13 mph 1005.2mb 42f
12:55 13 14 mph 1005.2mb 42f
12:40 14 16 mph 1005.1mb 42f
12:25 14 15 mph 1004.8mb 42f
12:10 11 14 mph 1005.2mb 41f
11:55 14 15 mph 1005.1mb 42f
11:40 11 13 mph 1005.4mb 41f
11:25 9 11 mph 1005.6mb 41f
11:10 6 8 mph 1005.8mb 41f
10:55 9 13 mph 1005.6mb 41f
10:40 10 11 mph 1005.8mb 41f
10:25 10 11 mph 1005.8mb 41f
10:10 10 11 mph 1005.9mb 41f
9:55 15 18 mph 1005.5mb 41f
9:40 17 21 mph 1005.1mb 41f
9:25 14 16 mph 1005.7mb 40f
9:10 16 18 mph 1005.6mb 40f
8:55 16 18 mph 1005.8mb 40f
8:40 15 17 mph 1005.3mb 40f
8:25 17 21 mph 1005.5mb 40f
8:10 20 22 mph 1005.7mb 40f
7:55 21 25 mph 1005.8mb 41f
7:40 22 24 mph 1005.2mb 41f
7:25 22 24 mph 1005.1mb 41f
7:10 21 24 mph 1005.6mb 41f
6:55 20 22 mph 1004.9mb 42f
6:40 18 23 mph 1005.1mb 42f
6:25 18 21 mph 1004.7mb 42f
6:10 17 18 mph 1004.6mb 42f
5:55 15 17 mph 1004mb 42f
5:40 15 16 mph 1003.9mb 42f
5:25 16 18 mph 1003.1mb 43f
5:10 17 21 mph 1003.5mb 43f
4:55 14 16 mph 1003.4mb 43f
4:40 15 17 mph 1003.1mb 43f
4:25 13 14 mph 1003.3mb 43f
4:10 10 13 mph 1003mb 44f
3:55 10 11 mph 1003.7mb 44f
3:40 13 15 mph 1003.4mb 44f
3:25 9 10 mph 1003.7mb 45f
3:10 14 15 mph 1003.1mb 45f
2:55 11 13 mph 1002.9mb 45f
2:40 13 17 mph 1002.7mb 45f
2:25 13 14 mph 1002.9mb 45f